Time;durP1;ratioP1;P1;durP2;ratioP2;P2;SDS_P1;SDS_P2;PMS_P1;PMS_P2;Temp;Humidity;BMP_temperature;BMP_pressure;BME280_temperature;BME280_humidity;BME280_pressure;Samples;Min_cycle;Max_cycle;Signal;HPM_P1;HPM_P2
2021/04/18 00:00:18;;;;;;;16.30;11.10;;;;;;;8.24;68.76;100768.58;1782380;80;21136;-60
2021/04/18 00:02:50;;;;;;;16.55;10.55;;;;;;;8.25;68.75;100765.00;1784003;80;21638;-60
2021/04/18 00:05:22;;;;;;;17.30;11.35;;;;;;;8.37;68.56;100761.61;1779417;80;21904;-61
2021/04/18 00:07:51;;;;;;;17.25;10.63;;;;;;;8.47;68.34;100764.52;1788488;80;21179;-61
2021/04/18 00:10:18;;;;;;;19.62;11.78;;;;;;;8.50;68.33;100766.08;1785978;80;21120;-61
2021/04/18 00:12:47;;;;;;;19.98;11.65;;;;;;;8.46;68.42;100761.50;1788494;80;21599;-61
2021/04/18 00:15:15;;;;;;;18.23;12.00;;;;;;;8.41;68.46;100768.80;1780711;80;21361;-61
2021/04/18 00:17:45;;;;;;;19.52;11.30;;;;;;;8.35;68.50;100767.42;1782027;80;21375;-61
2021/04/18 00:20:14;;;;;;;18.75;11.93;;;;;;;8.33;68.71;100774.53;1769970;79;21219;-61
2021/04/18 00:22:41;;;;;;;17.35;11.73;;;;;;;8.35;68.75;100771.81;1784895;80;21147;-62
2021/04/18 00:25:15;;;;;;;15.23;10.65;;;;;;;8.35;68.63;100764.80;1783484;79;21213;-62
2021/04/18 00:27:44;;;;;;;18.17;11.03;;;;;;;8.34;68.38;100767.05;1784361;79;21163;-61
2021/04/18 00:30:15;;;;;;;15.58;10.23;;;;;;;8.29;68.42;100767.81;1792534;79;21262;-62
2021/04/18 00:32:43;;;;;;;17.30;11.25;;;;;;;8.30;68.38;100764.71;1744623;81;21158;-63
2021/04/18 00:35:11;;;;;;;17.73;11.33;;;;;;;8.30;68.61;100764.23;1748700;81;21182;-62
2021/04/18 00:37:40;;;;;;;18.52;11.60;;;;;;;8.26;68.67;100764.07;1768993;80;21166;-62
2021/04/18 00:40:11;;;;;;;18.25;11.73;;;;;;;8.18;68.95;100765.86;1796294;79;21124;-61
2021/04/18 00:42:39;;;;;;;18.32;12.20;;;;;;;8.11;69.18;100765.89;1801026;79;21192;-61
2021/04/18 00:45:09;;;;;;;20.17;10.90;;;;;;;8.05;69.42;100765.44;1751389;80;21134;-62
2021/04/18 00:47:46;;;;;;;20.17;11.90;;;;;;;7.95;69.73;100766.03;1764401;80;21167;-61
2021/04/18 00:50:25;;;;;;;17.25;11.05;;;;;;;7.88;69.97;100761.26;1770496;80;21077;-61
2021/04/18 00:52:53;;;;;;;15.00;9.25;;;;;;;7.79;70.27;100761.38;1799014;79;21370;-61
2021/04/18 00:55:24;;;;;;;22.10;10.65;;;;;;;7.80;70.46;100756.48;1750093;79;21230;-61
2021/04/18 00:57:53;;;;;;;18.07;11.10;;;;;;;7.87;70.57;100753.02;1768045;79;21199;-62
2021/04/18 01:00:23;;;;;;;17.10;9.60;;;;;;;7.90;70.85;100755.45;1794249;79;21195;-60
2021/04/18 01:02:51;;;;;;;13.88;9.08;;;;;;;7.92;71.07;100754.91;1742499;79;21119;-60
2021/04/18 01:05:19;;;;;;;13.90;9.10;;;;;;;7.87;71.35;100752.56;1761664;79;21187;-60
2021/04/18 01:07:47;;;;;;;12.90;8.88;;;;;;;7.80;71.58;100749.49;1787002;78;21226;-60
2021/04/18 01:10:16;;;;;;;16.48;9.35;;;;;;;7.78;71.87;100746.58;1796429;79;21187;-60
2021/04/18 01:12:44;;;;;;;15.35;9.63;;;;;;;7.75;71.99;100746.31;1796676;79;21187;-61
2021/04/18 01:15:14;;;;;;;12.65;8.65;;;;;;;7.75;71.94;100734.53;1765128;79;21507;-60
2021/04/18 01:17:42;;;;;;;13.13;8.28;;;;;;;7.85;71.86;100733.48;1766976;79;21159;-60
2021/04/18 01:20:18;;;;;;;12.68;8.53;;;;;;;7.92;71.76;100731.33;1793616;79;21127;-60
2021/04/18 01:22:46;;;;;;;14.28;8.73;;;;;;;7.94;71.66;100728.96;1798807;79;21591;-60
2021/04/18 01:25:49;;;;;;;14.58;8.98;;;;;;;7.96;71.72;100721.00;1830463;76;22223;-60
2021/04/18 01:28:19;;;;;;;14.03;8.88;;;;;;;7.89;71.78;100723.66;1792084;78;21160;-61
2021/04/18 01:30:47;;;;;;;14.28;8.98;;;;;;;7.84;71.81;100723.94;1769624;79;21175;-61
2021/04/18 01:33:14;;;;;;;14.10;8.58;;;;;;;7.81;71.92;100712.34;1795675;79;21012;-61
2021/04/18 01:35:46;;;;;;;13.72;8.98;;;;;;;7.78;72.07;100716.45;1791587;79;21608;-61
2021/04/18 01:38:16;;;;;;;12.82;8.55;;;;;;;7.79;71.95;100717.67;1779926;79;21567;-61
2021/04/18 01:40:44;;;;;;;15.25;8.65;;;;;;;7.82;71.87;100710.09;1789909;79;21545;-61
2021/04/18 01:43:16;;;;;;;12.47;8.43;;;;;;;7.86;71.93;100710.27;1778784;79;21172;-61
2021/04/18 01:45:44;;;;;;;11.20;8.03;;;;;;;7.86;71.93;100706.33;1805473;79;21068;-61
2021/04/18 01:48:13;;;;;;;14.43;8.43;;;;;;;7.83;72.04;100704.38;1742335;79;21772;-61
2021/04/18 01:50:43;;;;;;;15.23;9.78;;;;;;;7.78;72.18;100700.73;1801106;79;21084;-61
2021/04/18 01:53:10;;;;;;;18.67;9.75;;;;;;;7.73;72.28;100701.50;1801957;79;21527;-61
2021/04/18 01:55:40;;;;;;;16.48;10.08;;;;;;;7.69;72.36;100707.87;1797495;79;22148;-61
2021/04/18 01:58:08;;;;;;;13.72;8.25;;;;;;;7.66;72.44;100706.76;1797653;79;21163;-60
2021/04/18 02:00:43;;;;;;;14.60;9.77;;;;;;;7.72;72.11;100699.36;1782886;79;21144;-60
2021/04/18 02:03:11;;;;;;;16.62;9.88;;;;;;;7.72;72.11;100699.36;1774768;79;21564;-60
2021/04/18 02:05:41;;;;;;;16.52;10.35;;;;;;;7.73;72.09;100705.42;1798383;79;21483;-61
2021/04/18 02:08:10;;;;;;;16.25;10.68;;;;;;;7.63;72.17;100698.16;1738032;80;22078;-61
2021/04/18 02:10:38;;;;;;;19.25;11.78;;;;;;;7.54;72.36;100693.48;1753623;79;21175;-61
2021/04/18 02:13:06;;;;;;;17.25;10.90;;;;;;;7.47;72.46;100694.81;1722522;81;21191;-61
2021/04/18 02:15:37;;;;;;;16.90;11.12;;;;;;;7.45;72.59;100691.45;1750471;80;21202;-62
2021/04/18 02:18:06;;;;;;;19.42;10.78;;;;;;;7.43;72.48;100694.16;1727347;81;21171;-61
2021/04/18 02:20:35;;;;;;;15.35;10.13;;;;;;;7.44;72.37;100685.35;1793346;79;21180;-61
2021/04/18 02:23:03;;;;;;;16.12;9.83;;;;;;;7.55;72.11;100687.32;1796194;79;21128;-60
2021/04/18 02:25:31;;;;;;;16.93;10.82;;;;;;;7.66;71.88;100687.11;1792660;79;21151;-60
2021/04/18 02:27:59;;;;;;;19.87;11.22;;;;;;;7.69;71.66;100680.38;1798601;79;21156;-60
2021/04/18 02:30:28;;;;;;;17.85;11.60;;;;;;;7.72;71.83;100673.16;1802403;79;21725;-60
2021/04/18 02:32:55;;;;;;;15.32;9.63;;;;;;;7.77;71.66;100668.47;1788549;79;23674;-60
2021/04/18 02:35:25;;;;;;;16.35;10.18;;;;;;;7.79;71.48;100677.54;1793354;79;21115;-60
2021/04/18 02:37:53;;;;;;;16.60;10.50;;;;;;;7.78;71.52;100673.23;1776477;79;21207;-60
2021/04/18 02:40:22;;;;;;;17.25;10.32;;;;;;;7.79;71.51;100663.13;1794072;79;21155;-60
2021/04/18 02:42:49;;;;;;;13.48;8.68;;;;;;;7.78;71.49;100661.44;1791992;79;21084;-60
2021/04/18 02:45:18;;;;;;;12.07;8.13;;;;;;;7.81;71.31;100659.94;1803180;79;21199;-61
2021/04/18 02:47:51;;;;;;;13.55;7.35;;;;;;;7.85;71.06;100652.27;1795937;79;21141;-61
2021/04/18 02:50:19;;;;;;;14.83;9.15;;;;;;;7.85;71.00;100648.34;1791069;79;21153;-61
2021/04/18 02:52:48;;;;;;;14.50;8.78;;;;;;;7.79;71.11;100658.73;1710083;82;21170;-61
2021/04/18 02:55:17;;;;;;;14.98;8.63;;;;;;;7.66;71.51;100651.75;1743552;81;21543;-61
2021/04/18 02:57:54;;;;;;;15.05;9.73;;;;;;;7.59;71.86;100649.52;1750272;78;22742;-61
2021/04/18 03:00:23;;;;;;;14.83;9.63;;;;;;;7.47;72.01;100645.06;1724434;80;21187;-61
2021/04/18 03:02:51;;;;;;;15.85;10.18;;;;;;;7.41;72.22;100656.77;1714522;80;21191;-61
2021/04/18 03:05:20;;;;;;;13.68;7.97;;;;;;;7.40;72.37;100651.63;1729617;80;21592;-61
2021/04/18 03:07:49;;;;;;;14.95;9.48;;;;;;;7.51;72.34;100659.62;1753884;80;21185;-59
2021/04/18 03:10:18;;;;;;;15.32;8.55;;;;;;;7.60;72.04;100651.20;1758717;80;21168;-60
2021/04/18 03:12:46;;;;;;;16.48;9.28;;;;;;;7.62;72.04;100651.95;1757248;80;21196;-61
2021/04/18 03:15:15;;;;;;;13.50;8.93;;;;;;;7.61;72.07;100658.11;1753273;80;21196;-61
2021/04/18 03:17:44;;;;;;;14.33;8.90;;;;;;;7.57;72.21;100659.25;1728421;80;21195;-61
2021/04/18 03:20:14;;;;;;;15.65;8.93;;;;;;;7.51;72.43;100660.11;1767425;80;21226;-61
2021/04/18 03:22:43;;;;;;;13.85;8.23;;;;;;;7.44;72.61;100652.62;1748024;82;21164;-62
2021/04/18 03:25:12;;;;;;;13.85;8.13;;;;;;;7.47;72.67;100654.23;1763696;80;21169;-62
2021/04/18 03:27:40;;;;;;;15.93;8.23;;;;;;;7.51;72.47;100662.25;1756261;80;21358;-62
2021/04/18 03:30:11;;;;;;;12.95;9.08;;;;;;;7.54;72.53;100663.84;1729009;80;21136;-62
2021/04/18 03:32:40;;;;;;;13.15;7.85;;;;;;;7.51;72.62;100656.17;1754708;80;21194;-62
2021/04/18 03:35:10;;;;;;;12.82;7.70;;;;;;;7.50;72.70;100655.80;1738639;80;21187;-62
2021/04/18 03:37:38;;;;;;;14.10;8.60;;;;;;;7.49;72.81;100654.97;1760609;80;21741;-63
2021/04/18 03:40:07;;;;;;;13.28;8.05;;;;;;;7.48;72.74;100655.92;1774848;80;21263;-63
2021/04/18 03:42:35;;;;;;;13.05;8.15;;;;;;;7.54;72.70;100655.99;1753956;80;21177;-63
2021/04/18 03:45:05;;;;;;;10.85;7.10;;;;;;;7.66;72.39;100654.37;1729074;80;21606;-63
2021/04/18 03:47:33;;;;;;;12.33;7.65;;;;;;;7.73;72.10;100649.97;1766962;80;21117;-64
2021/04/18 03:50:09;;;;;;;14.55;8.15;;;;;;;7.78;71.97;100653.13;1754843;80;21650;-64
2021/04/18 03:52:48;;;;;;;11.03;6.95;;;;;;;7.86;71.95;100659.17;1767588;79;22421;-62
2021/04/18 03:55:17;;;;;;;12.85;7.42;;;;;;;7.81;71.83;100658.15;1730819;81;21141;-62
2021/04/18 03:57:45;;;;;;;14.30;8.43;;;;;;;7.78;71.85;100643.97;1702016;82;21267;-62
2021/04/18 04:00:14;;;;;;;14.65;9.05;;;;;;;7.74;71.94;100648.18;1725884;82;21200;-60
2021/04/18 04:02:45;;;;;;;14.20;7.85;;;;;;;7.70;72.04;100647.98;1731050;82;21570;-61
2021/04/18 04:05:14;;;;;;;13.65;8.30;;;;;;;7.76;72.02;100654.16;1722708;82;21670;-62
2021/04/18 04:07:42;;;;;;;11.75;7.30;;;;;;;7.88;71.76;100655.98;1729137;82;21187;-62
2021/04/18 04:10:11;;;;;;;13.13;7.62;;;;;;;7.96;71.43;100655.02;1735519;82;21726;-61
2021/04/18 04:12:40;;;;;;;11.88;7.78;;;;;;;7.95;71.45;100653.36;1679127;82;21848;-61
2021/04/18 04:15:11;;;;;;;11.35;6.92;;;;;;;7.96;71.56;100660.73;1732621;82;21172;-61
2021/04/18 04:17:39;;;;;;;12.58;7.25;;;;;;;7.99;71.43;100664.47;1728841;82;21211;-61
2021/04/18 04:20:21;;;;;;;11.93;7.75;;;;;;;7.97;71.48;100663.27;1717965;82;21682;-60
2021/04/18 04:22:56;;;;;;;12.27;7.17;;;;;;;7.97;71.52;100667.19;1707555;82;21630;-62
2021/04/18 04:25:24;;;;;;;12.35;7.12;;;;;;;8.06;71.41;100664.44;1738842;82;21180;-61
2021/04/18 04:27:52;;;;;;;11.33;6.45;;;;;;;8.20;71.28;100656.98;1740927;82;21207;-60
2021/04/18 04:30:21;;;;;;;12.65;7.97;;;;;;;8.30;70.82;100659.36;1711266;82;21259;-62
2021/04/18 04:32:49;;;;;;;12.07;7.08;;;;;;;8.37;70.75;100661.97;1736761;82;21594;-61
2021/04/18 04:35:17;;;;;;;10.85;6.72;;;;;;;8.38;70.53;100668.87;1741055;82;21179;-62
2021/04/18 04:37:47;;;;;;;10.88;7.05;;;;;;;8.37;70.39;100661.97;1731582;82;21164;-61
2021/04/18 04:40:16;;;;;;;13.22;6.42;;;;;;;8.33;70.19;100659.64;1696392;82;21216;-61
2021/04/18 04:42:45;;;;;;;11.12;6.58;;;;;;;8.33;70.26;100658.33;1722243;82;21227;-60
2021/04/18 04:45:13;;;;;;;10.43;5.92;;;;;;;8.31;70.09;100655.80;1702245;83;21663;-61
2021/04/18 04:47:42;;;;;;;11.83;6.53;;;;;;;8.29;70.00;100663.42;1710903;82;21919;-61
2021/04/18 04:50:12;;;;;;;8.78;5.08;;;;;;;8.32;69.96;100664.05;1715553;82;21682;-62
2021/04/18 04:52:39;;;;;;;12.53;6.72;;;;;;;8.40;69.67;100663.53;1713892;82;21160;-61
2021/04/18 04:55:07;;;;;;;9.45;5.55;;;;;;;8.46;69.45;100668.41;1707273;82;21216;-61
2021/04/18 04:57:35;;;;;;;9.28;5.62;;;;;;;8.47;69.25;100656.98;1705129;83;21734;-61
2021/04/18 05:00:05;;;;;;;9.45;5.42;;;;;;;8.45;69.44;100654.08;1688449;82;22001;-62
2021/04/18 05:02:32;;;;;;;8.83;5.17;;;;;;;8.41;69.18;100646.03;1715549;81;21809;-62
2021/04/18 05:05:00;;;;;;;8.38;4.90;;;;;;;8.36;69.19;100648.47;1701469;82;21216;-60
2021/04/18 05:07:28;;;;;;;8.55;5.55;;;;;;;8.37;69.32;100646.68;1714716;82;21157;-61
2021/04/18 05:09:55;;;;;;;9.33;4.70;;;;;;;8.38;69.35;100642.65;1705418;82;21145;-62
2021/04/18 05:12:23;;;;;;;8.18;4.83;;;;;;;8.38;69.17;100632.64;1701606;83;21223;-63
2021/04/18 05:14:51;;;;;;;8.83;5.03;;;;;;;8.45;69.25;100634.41;1713131;82;21227;-62
2021/04/18 05:17:18;;;;;;;10.60;5.80;;;;;;;8.56;68.99;100630.61;1708764;82;21176;-62
2021/04/18 05:19:46;;;;;;;8.98;4.92;;;;;;;8.67;68.70;100634.63;1695043;82;21199;-62
2021/04/18 05:22:16;;;;;;;9.15;5.75;;;;;;;8.72;68.70;100630.39;1723340;82;21168;-62
2021/04/18 05:24:43;;;;;;;9.65;5.60;;;;;;;8.72;68.49;100627.77;1717732;82;21232;-62
2021/04/18 05:27:11;;;;;;;9.63;5.67;;;;;;;8.69;68.52;100626.20;1697127;82;21212;-60
2021/04/18 05:29:38;;;;;;;9.40;5.20;;;;;;;8.64;68.51;100621.75;1689600;82;21281;-62
2021/04/18 05:33:35;;;;;;;9.85;5.92;;;;;;;8.66;68.93;100613.30;1754559;79;23205;-59
2021/04/18 05:36:05;;;;;;;10.43;5.55;;;;;;;8.62;68.93;100609.19;1727458;82;21192;-61
2021/04/18 05:38:35;;;;;;;10.23;5.80;;;;;;;8.72;68.81;100610.27;1722298;82;21223;-59
2021/04/18 05:41:02;;;;;;;10.45;5.53;;;;;;;8.87;68.47;100607.02;1710455;82;21236;-59
2021/04/18 05:43:30;;;;;;;9.43;5.35;;;;;;;8.98;68.26;100603.67;1707152;82;21219;-60
2021/04/18 05:45:59;;;;;;;9.08;5.45;;;;;;;9.01;68.08;100602.16;1697919;82;21224;-60
2021/04/18 05:48:27;;;;;;;13.08;7.00;;;;;;;9.03;67.63;100596.80;1722477;82;21191;-57
2021/04/18 05:50:55;;;;;;;11.33;6.90;;;;;;;8.98;67.72;100600.19;1721306;82;22014;-59
2021/04/18 05:53:23;;;;;;;11.30;6.15;;;;;;;8.96;67.90;100593.77;1734345;82;21932;-58
2021/04/18 05:55:50;;;;;;;10.90;6.20;;;;;;;8.98;67.98;100592.31;1736042;82;21219;-59
2021/04/18 05:58:18;;;;;;;9.40;5.55;;;;;;;8.99;67.82;100592.20;1726554;82;21211;-60
2021/04/18 06:00:45;;;;;;;9.85;5.75;;;;;;;9.10;67.92;100600.17;1731951;82;21204;-60
2021/04/18 06:03:12;;;;;;;9.70;6.28;;;;;;;9.25;67.30;100603.99;1722321;82;21430;-60
2021/04/18 06:05:42;;;;;;;12.70;6.70;;;;;;;9.27;67.21;100608.17;1709355;82;21195;-61
2021/04/18 06:08:11;;;;;;;10.25;6.08;;;;;;;9.27;67.22;100600.78;1706198;82;21170;-59
2021/04/18 06:10:40;;;;;;;10.10;6.22;;;;;;;9.27;67.09;100600.78;1730240;80;21291;-59
2021/04/18 06:13:09;;;;;;;10.45;5.37;;;;;;;9.24;67.13;100596.56;1731764;81;21172;-59
2021/04/18 06:15:38;;;;;;;11.18;6.58;;;;;;;9.23;67.16;100601.47;1727541;82;21203;-59
2021/04/18 06:18:06;;;;;;;9.23;5.37;;;;;;;9.21;67.13;100598.58;1728175;81;21136;-60
2021/04/18 06:20:33;;;;;;;12.07;5.97;;;;;;;9.21;67.30;100598.58;1668496;85;21207;-60
2021/04/18 06:23:01;;;;;;;11.18;6.17;;;;;;;9.26;67.15;100601.26;1691936;84;21189;-61
2021/04/18 06:25:28;;;;;;;10.70;5.87;;;;;;;9.39;66.99;100603.00;1688282;84;21164;-60
2021/04/18 06:27:55;;;;;;;10.05;6.05;;;;;;;9.42;66.52;100608.04;1691629;84;21208;-62
2021/04/18 06:30:27;;;;;;;10.95;6.10;;;;;;;9.35;66.57;100601.07;1676880;84;21231;-60
2021/04/18 06:32:55;;;;;;;9.73;5.87;;;;;;;9.33;66.87;100606.91;1695189;83;21146;-60
2021/04/18 06:35:22;;;;;;;10.40;6.03;;;;;;;9.32;67.14;100602.59;1698651;83;21212;-60
2021/04/18 06:37:50;;;;;;;10.00;6.45;;;;;;;9.35;67.11;100602.38;1677782;83;21174;-60
2021/04/18 06:40:17;;;;;;;10.48;5.72;;;;;;;9.36;67.18;100599.28;1697933;83;21194;-60
2021/04/18 06:42:48;;;;;;;10.90;6.00;;;;;;;9.39;67.33;100599.89;1701500;83;21193;-60
2021/04/18 06:45:15;;;;;;;9.03;5.92;;;;;;;9.51;67.02;100593.40;1683026;83;21182;-59
2021/04/18 06:47:44;;;;;;;10.23;5.50;;;;;;;9.64;66.44;100594.19;1698475;83;21205;-60
2021/04/18 06:50:12;;;;;;;10.03;5.92;;;;;;;9.69;66.13;100596.48;1696403;83;21182;-59
2021/04/18 06:52:39;;;;;;;11.90;6.67;;;;;;;9.67;66.25;100588.23;1697250;83;21308;-61
2021/04/18 06:55:09;;;;;;;13.00;6.65;;;;;;;9.66;66.39;100581.77;1704435;83;21123;-60
2021/04/18 06:57:36;;;;;;;11.20;6.15;;;;;;;9.70;66.50;100581.93;1677234;83;21142;-60
2021/04/18 07:00:09;;;;;;;11.22;6.35;;;;;;;9.74;66.28;100587.31;1679252;83;21186;-59
2021/04/18 07:02:37;;;;;;;9.40;5.53;;;;;;;9.77;65.85;100592.83;1701321;83;21177;-60
2021/04/18 07:05:10;;;;;;;10.40;5.75;;;;;;;9.75;66.00;100578.48;1700018;83;21688;-60
2021/04/18 07:07:45;;;;;;;10.25;5.28;;;;;;;9.84;66.00;100579.59;1695127;83;21269;-59
2021/04/18 07:10:28;;;;;;;10.80;5.60;;;;;;;9.98;65.79;100579.39;1698797;83;21193;-59
2021/04/18 07:13:07;;;;;;;9.95;6.03;;;;;;;10.08;65.39;100578.72;1694129;83;21256;-60
2021/04/18 07:15:41;;;;;;;9.03;5.80;;;;;;;10.09;65.14;100578.61;1655338;83;21629;-59
2021/04/18 07:18:10;;;;;;;10.15;6.12;;;;;;;10.04;64.87;100577.62;1699171;83;21214;-59
2021/04/18 07:20:53;;;;;;;10.43;6.35;;;;;;;9.95;65.06;100567.81;1682545;83;21177;-60
2021/04/18 07:23:30;;;;;;;11.30;6.87;;;;;;;9.90;65.65;100567.77;1700271;83;21222;-60
2021/04/18 07:26:01;;;;;;;13.60;6.92;;;;;;;9.90;65.96;100556.81;1699031;83;21191;-60
2021/04/18 07:28:29;;;;;;;10.40;5.50;;;;;;;9.96;66.29;100556.33;1702598;83;21179;-61
2021/04/18 07:31:01;;;;;;;8.08;4.55;;;;;;;10.10;65.74;100544.77;1700484;83;23481;-60
2021/04/18 07:33:26;;;;;;;8.58;5.03;;;;;;;10.30;65.52;100544.57;1703473;83;21191;-60
2021/04/18 07:35:53;;;;;;;10.35;6.28;;;;;;;10.39;64.79;100552.30;1681453;83;21221;-60
2021/04/18 07:38:27;;;;;;;8.75;5.92;;;;;;;10.35;64.72;100540.31;1681205;83;21193;-61
2021/04/18 07:41:17;;;;;;;11.48;6.20;;;;;;;10.32;65.13;100549.30;1699223;83;21169;-61
2021/04/18 07:43:46;;;;;;;11.85;6.15;;;;;;;10.32;65.00;100551.92;1705100;83;21438;-60
2021/04/18 07:46:14;;;;;;;9.43;5.47;;;;;;;10.32;65.16;100553.70;1701274;83;21201;-59
2021/04/18 07:48:43;;;;;;;10.55;5.45;;;;;;;10.29;65.02;100563.09;1684875;83;21151;-59
2021/04/18 07:51:13;;;;;;;9.23;5.75;;;;;;;10.27;64.80;100557.98;1700830;83;21633;-60
2021/04/18 07:53:42;;;;;;;8.88;5.67;;;;;;;10.27;64.53;100545.29;1702967;83;21194;-60
2021/04/18 07:56:10;;;;;;;9.83;5.30;;;;;;;10.34;64.90;100550.47;1700586;83;22920;-58
2021/04/18 07:58:43;;;;;;;10.10;5.55;;;;;;;10.39;64.80;100542.60;1695479;83;21218;-60
2021/04/18 08:01:11;;;;;;;9.70;5.60;;;;;;;10.39;64.59;100541.77;1697278;83;21142;-60
2021/04/18 08:03:43;;;;;;;8.95;5.05;;;;;;;10.36;64.59;100552.04;1694008;83;21173;-61
2021/04/18 08:06:12;;;;;;;9.23;5.00;;;;;;;10.35;64.59;100548.20;1681931;83;21205;-61
2021/04/18 08:08:46;;;;;;;8.35;4.78;;;;;;;10.33;64.74;100542.23;1698418;83;21408;-59
2021/04/18 08:11:15;;;;;;;9.10;4.80;;;;;;;10.30;64.88;100547.20;1701734;83;21235;-65
2021/04/18 08:13:48;;;;;;;9.23;5.00;;;;;;;10.29;64.76;100540.74;1699368;83;21181;-60
2021/04/18 08:16:30;;;;;;;9.10;4.75;;;;;;;10.27;65.03;100550.55;1706151;83;21174;-60
2021/04/18 08:19:08;;;;;;;8.45;4.65;;;;;;;10.31;64.80;100548.89;1699025;83;21231;-61
2021/04/18 08:21:43;;;;;;;8.30;4.70;;;;;;;10.42;64.72;100546.77;1699402;83;21213;-60
2021/04/18 08:24:23;;;;;;;9.50;5.28;;;;;;;10.49;64.62;100551.95;1707483;83;21150;-61
2021/04/18 08:27:07;;;;;;;8.05;4.62;;;;;;;10.49;64.79;100548.45;1701129;83;21156;-62
2021/04/18 08:29:38;;;;;;;7.75;4.55;;;;;;;10.47;64.89;100546.42;1707520;83;21112;-62
2021/04/18 08:32:10;;;;;;;9.05;4.62;;;;;;;10.46;64.81;100551.34;1677322;83;21755;-63
2021/04/18 08:34:43;;;;;;;7.05;3.98;;;;;;;10.45;64.79;100549.66;1701498;83;21535;-61
2021/04/18 08:37:17;;;;;;;9.45;5.22;;;;;;;10.45;64.88;100550.97;1681300;83;21146;-60
2021/04/18 08:39:45;;;;;;;8.38;4.83;;;;;;;10.46;65.01;100562.70;1696897;83;21712;-58
2021/04/18 08:42:28;;;;;;;9.23;4.67;;;;;;;10.53;64.66;100555.17;1699488;83;21776;-59
2021/04/18 08:44:57;;;;;;;6.72;3.87;;;;;;;10.67;63.66;100565.94;1695081;83;21583;-59
2021/04/18 08:47:28;;;;;;;11.45;4.60;;;;;;;10.64;63.26;100549.92;1700163;83;21194;-59
2021/04/18 08:50:06;;;;;;;7.97;4.67;;;;;;;10.55;63.61;100561.14;1694066;83;21238;-58
2021/04/18 08:52:35;;;;;;;8.48;4.95;;;;;;;10.48;63.51;100554.20;1701998;83;22090;-58
2021/04/18 08:55:13;;;;;;;8.08;4.85;;;;;;;10.39;63.97;100550.49;1700516;83;21106;-59
2021/04/18 08:57:40;;;;;;;8.68;5.60;;;;;;;10.33;64.02;100547.49;1682626;83;22018;-59
2021/04/18 09:00:13;;;;;;;9.25;4.72;;;;;;;10.31;64.04;100544.12;1701185;83;21403;-59
2021/04/18 09:02:41;;;;;;;11.78;5.70;;;;;;;10.29;64.24;100548.63;1682517;83;21185;-59
2021/04/18 09:05:16;;;;;;;9.35;5.00;;;;;;;10.26;64.28;100548.89;1696141;83;21178;-58
2021/04/18 09:07:43;;;;;;;9.55;5.60;;;;;;;10.27;64.28;100550.09;1682493;83;21270;-57
2021/04/18 09:10:12;;;;;;;8.50;5.15;;;;;;;10.37;64.36;100548.92;1702927;83;21167;-58
2021/04/18 09:12:40;;;;;;;9.15;5.08;;;;;;;10.45;64.15;100551.80;1686029;83;21226;-58
2021/04/18 09:15:09;;;;;;;11.15;5.83;;;;;;;10.46;64.17;100544.28;1684785;83;21243;-58
2021/04/18 09:17:40;;;;;;;11.05;4.67;;;;;;;10.45;64.24;100545.23;1670735;84;21158;-58
2021/04/18 09:20:10;;;;;;;9.78;5.15;;;;;;;10.46;64.23;100542.97;1682717;84;21163;-59
2021/04/18 09:22:41;;;;;;;9.73;5.37;;;;;;;10.46;64.34;100548.23;1717581;82;21181;-59
2021/04/18 09:25:14;;;;;;;8.88;5.28;;;;;;;10.49;64.30;100548.45;1694201;82;21995;-59
2021/04/18 09:27:48;;;;;;;10.30;5.70;;;;;;;10.47;64.42;100549.06;1703756;82;21667;-60
2021/04/18 09:30:26;;;;;;;8.58;5.20;;;;;;;10.44;64.43;100542.25;1720316;81;21125;-60
2021/04/18 09:32:55;;;;;;;9.05;5.12;;;;;;;10.50;64.55;100543.08;1717376;82;21684;-59
2021/04/18 09:35:24;;;;;;;8.05;4.62;;;;;;;10.63;64.13;100539.52;1725039;82;21124;-59
2021/04/18 09:38:01;;;;;;;8.70;4.83;;;;;;;10.71;64.16;100543.70;1720112;82;22354;-60
2021/04/18 09:40:30;;;;;;;9.45;5.62;;;;;;;10.71;63.80;100543.70;1700592;82;21163;-60
2021/04/18 09:42:59;;;;;;;8.85;5.28;;;;;;;10.68;63.81;100538.68;1736290;82;21184;-59
2021/04/18 09:45:29;;;;;;;9.85;5.30;;;;;;;10.66;63.82;100540.56;1719516;80;21523;-59
2021/04/18 09:48:00;;;;;;;9.80;5.53;;;;;;;10.59;63.91;100543.70;1730516;82;21275;-59
2021/04/18 09:50:32;;;;;;;9.30;5.03;;;;;;;10.54;64.13;100537.95;1720318;82;21292;-59
2021/04/18 09:53:18;;;;;;;9.33;4.72;;;;;;;10.53;64.50;100542.84;1715383;82;21159;-59
2021/04/18 09:55:58;;;;;;;9.85;5.28;;;;;;;10.54;64.53;100537.95;1721520;82;21455;-61
2021/04/18 09:58:39;;;;;;;10.80;5.53;;;;;;;10.61;64.40;100543.58;1697064;82;21232;-61
2021/04/18 10:01:29;;;;;;;8.65;4.97;;;;;;;10.73;64.27;100549.19;1721883;82;21213;-58
2021/04/18 10:03:57;;;;;;;8.93;5.10;;;;;;;10.81;64.05;100549.92;1727399;82;21192;-61
2021/04/18 10:06:26;;;;;;;7.40;4.47;;;;;;;10.82;64.22;100553.38;1721721;82;21153;-58
2021/04/18 10:09:01;;;;;;;9.78;5.60;;;;;;;10.84;64.21;100558.05;1722393;82;21714;-58
2021/04/18 10:11:28;;;;;;;10.58;5.10;;;;;;;10.85;64.11;100552.66;1722171;81;21149;-60
2021/04/18 10:13:57;;;;;;;9.08;5.22;;;;;;;10.87;64.12;100554.69;1726146;82;21200;-60
2021/04/18 10:16:39;;;;;;;8.65;4.62;;;;;;;10.90;64.10;100558.40;1720421;82;21211;-60
2021/04/18 10:19:18;;;;;;;8.65;5.08;;;;;;;10.90;63.98;100564.98;1722496;82;21253;-58
2021/04/18 10:22:09;;;;;;;10.15;6.00;;;;;;;10.87;63.95;100566.53;1720845;82;21192;-59
2021/04/18 10:24:48;;;;;;;8.05;4.90;;;;;;;10.87;63.80;100567.02;1721777;82;21223;-60
2021/04/18 10:27:27;;;;;;;9.20;5.15;;;;;;;10.94;63.88;100573.02;1718073;82;21428;-59
2021/04/18 10:29:56;;;;;;;10.28;4.80;;;;;;;11.08;63.35;100574.55;1723987;82;21374;-59
2021/04/18 10:32:24;;;;;;;9.00;4.62;;;;;;;11.18;63.24;100572.48;1725884;82;21212;-60
2021/04/18 10:34:53;;;;;;;8.68;4.47;;;;;;;11.23;63.14;100577.77;1720660;82;21632;-61
2021/04/18 10:37:22;;;;;;;9.00;4.90;;;;;;;11.28;63.20;100579.55;1632129;86;21264;-61
2021/04/18 10:39:51;;;;;;;9.78;5.33;;;;;;;11.33;63.15;100577.84;1692400;82;21216;-59
2021/04/18 10:42:19;;;;;;;9.38;4.55;;;;;;;11.39;63.26;100577.85;1713721;82;21392;-59
2021/04/18 10:44:46;;;;;;;9.25;5.28;;;;;;;11.42;63.03;100582.39;1714669;82;21791;-59
2021/04/18 10:47:18;;;;;;;9.20;5.08;;;;;;;11.47;63.15;100578.91;1702230;82;21643;-60
2021/04/18 10:49:48;;;;;;;8.28;4.87;;;;;;;11.51;62.42;100579.00;1715842;82;21659;-60
2021/04/18 10:52:15;;;;;;;7.58;4.47;;;;;;;11.49;62.36;100583.56;1714905;82;21172;-60
2021/04/18 10:54:43;;;;;;;10.03;4.97;;;;;;;11.48;62.42;100578.41;1711754;82;21618;-60
2021/04/18 10:57:11;;;;;;;11.00;5.28;;;;;;;11.55;62.33;100580.07;1713812;82;21702;-60
2021/04/18 10:59:39;;;;;;;8.80;5.15;;;;;;;11.63;61.96;100577.66;1701518;82;21223;-61
2021/04/18 11:02:07;;;;;;;9.88;5.83;;;;;;;11.66;61.91;100578.73;1705030;82;21231;-60
2021/04/18 11:04:38;;;;;;;8.00;4.72;;;;;;;11.62;62.08;100582.09;1715416;82;21093;-61
2021/04/18 11:07:05;;;;;;;7.95;4.75;;;;;;;11.63;62.11;100580.29;1710325;82;21218;-59
2021/04/18 11:09:33;;;;;;;10.63;5.72;;;;;;;11.61;62.44;100581.73;1701503;82;21479;-58
2021/04/18 11:12:01;;;;;;;9.53;5.90;;;;;;;11.62;62.42;100582.59;1694212;82;21256;-59
2021/04/18 11:14:28;;;;;;;9.68;5.67;;;;;;;11.60;62.44;100579.22;1708852;82;21200;-59
2021/04/18 11:16:56;;;;;;;8.88;5.30;;;;;;;11.55;62.43;100579.61;1714840;82;21189;-59
2021/04/18 11:19:24;;;;;;;9.73;5.70;;;;;;;11.51;62.79;100582.95;1713207;82;21213;-60
2021/04/18 11:21:52;;;;;;;9.93;5.78;;;;;;;11.46;63.00;100584.29;1712409;82;21205;-58
2021/04/18 11:24:19;;;;;;;10.70;6.10;;;;;;;11.49;63.00;100578.78;1691522;81;21216;-60
2021/04/18 11:26:47;;;;;;;9.13;6.10;;;;;;;11.56;62.83;100591.81;1712966;81;21232;-59
2021/04/18 11:29:14;;;;;;;11.60;6.67;;;;;;;11.53;63.04;100588.95;1696557;82;21205;-59
2021/04/18 11:31:44;;;;;;;9.75;5.62;;;;;;;11.54;62.97;100587.15;1695039;82;21232;-61
2021/04/18 11:34:11;;;;;;;9.15;5.72;;;;;;;11.55;62.99;100590.61;1716180;82;21213;-60
2021/04/18 11:36:39;;;;;;;10.18;6.08;;;;;;;11.56;62.87;100589.17;1717459;82;21200;-60
2021/04/18 11:39:07;;;;;;;8.95;5.62;;;;;;;11.59;62.80;100586.78;1697971;82;21185;-60